createdAt,value
2022-12-11T00:00:26.465Z,96628.34
2022-12-11T00:04:27.904Z,96637.53
2022-12-11T00:08:30.654Z,96642.50
2022-12-11T00:12:32.055Z,96634.66
2022-12-11T00:16:33.514Z,96639.44
2022-12-11T00:20:34.896Z,96638.41
2022-12-11T00:24:37.628Z,96632.69
2022-12-11T00:28:39.072Z,96635.91
2022-12-11T00:32:40.567Z,96639.16
2022-12-11T00:36:41.968Z,96641.22
2022-12-11T00:40:45.154Z,96650.16
2022-12-11T00:44:46.542Z,96655.78
2022-12-11T00:48:47.940Z,96664.03
2022-12-11T00:52:49.320Z,96667.47
2022-12-11T00:56:52.084Z,96680.88
2022-12-11T01:00:53.521Z,96669.75
2022-12-11T01:04:55.002Z,96676.44
2022-12-11T01:08:57.217Z,96681.66
2022-12-11T01:13:01.247Z,96684.13
2022-12-11T01:17:02.759Z,96690.78
2022-12-11T01:21:07.650Z,96701.19
2022-12-11T01:25:09.483Z,96694.69
2022-12-11T01:29:12.396Z,96696.56
2022-12-11T01:33:13.734Z,96705.78
2022-12-11T01:37:15.146Z,96708.94
2022-12-11T01:41:17.076Z,96707.19
2022-12-11T01:45:27.719Z,96704.63
2022-12-11T01:49:29.364Z,96704.41
2022-12-11T01:53:33.298Z,96701.81
2022-12-11T01:57:34.806Z,96687.91
2022-12-11T02:01:40.695Z,96695.38
2022-12-11T02:05:42.162Z,96698.84
2022-12-11T02:09:45.005Z,96702.19
2022-12-11T02:13:51.734Z,96698.53
2022-12-11T02:18:00.179Z,96703.72
2022-12-11T02:22:03.086Z,96703.34
2022-12-11T02:26:10.309Z,96701.53
2022-12-11T02:30:14.010Z,96701.13
2022-12-11T02:34:18.191Z,96703.97
2022-12-11T02:38:23.031Z,96700.81
2022-12-11T02:42:28.578Z,96693.53
2022-12-11T02:46:34.087Z,96685.97
2022-12-11T02:50:37.594Z,96690.25
2022-12-11T02:54:40.112Z,96680.88
2022-12-11T02:58:45.527Z,96681.38
2022-12-11T03:02:48.365Z,96685.66
2022-12-11T03:06:51.567Z,96685.09
2022-12-11T03:10:52.953Z,96682.03
2022-12-11T03:14:54.477Z,96677.63
2022-12-11T03:19:02.015Z,96675.03
2022-12-11T03:23:08.356Z,96685.16
2022-12-11T03:27:14.504Z,96677.75
2022-12-11T03:31:21.146Z,96680.16
2022-12-11T03:35:26.320Z,96683.69
2022-12-11T03:39:31.037Z,96688.28
2022-12-11T03:43:33.106Z,96703.84
2022-12-11T03:47:34.918Z,96705.75
2022-12-11T03:51:38.030Z,96700.66
2022-12-11T03:55:39.991Z,96699.41
2022-12-11T03:59:41.640Z,96701.91
2022-12-11T04:03:43.020Z,96702.47
2022-12-11T04:07:45.837Z,96701.72
2022-12-11T04:11:47.254Z,96697.84
2022-12-11T04:15:48.800Z,96698.97
2022-12-11T04:19:50.245Z,96697.72
2022-12-11T04:23:52.965Z,96700.81
2022-12-11T04:27:54.351Z,96694.91
2022-12-11T04:31:55.744Z,96698.09
2022-12-11T04:35:57.329Z,96691.44
2022-12-11T04:40:00.069Z,96699.78
2022-12-11T04:44:01.504Z,96695.25
2022-12-11T04:48:02.895Z,96698.63
2022-12-11T04:52:04.534Z,96688.91
2022-12-11T04:56:08.107Z,96694.94
2022-12-11T05:00:10.565Z,96692.47
2022-12-11T05:04:12.058Z,96694.47
2022-12-11T05:08:13.474Z,96697.44
2022-12-11T05:12:16.248Z,96691.09
2022-12-11T05:16:17.669Z,96685.47
2022-12-11T05:20:19.125Z,96683.72
2022-12-11T05:24:20.536Z,96683.47
2022-12-11T05:28:23.815Z,96681.16
2022-12-11T05:32:25.210Z,96677.50
2022-12-11T05:36:27.598Z,96689.50
2022-12-11T05:40:29.077Z,96692.31
2022-12-11T05:44:31.826Z,96699.03
2022-12-11T05:48:33.207Z,96698.63
2022-12-11T05:52:34.586Z,96685.00
2022-12-11T05:56:36.296Z,96690.31
2022-12-11T06:00:41.075Z,96686.00
2022-12-11T06:04:42.461Z,96687.38
2022-12-11T06:08:43.821Z,96687.31
2022-12-11T06:12:45.169Z,96692.34
2022-12-11T06:16:47.936Z,96697.41
2022-12-11T06:20:49.351Z,96699.16
2022-12-11T06:24:50.724Z,96698.94
2022-12-11T06:28:52.730Z,96695.84
2022-12-11T06:32:55.477Z,96695.38
2022-12-11T06:36:56.822Z,96687.75
2022-12-11T06:40:59.486Z,96690.47
2022-12-11T06:45:00.924Z,96686.00
2022-12-11T06:49:03.664Z,96685.88
2022-12-11T06:53:05.076Z,96693.97
2022-12-11T06:57:06.424Z,96701.63
2022-12-11T07:01:13.898Z,96696.94
2022-12-11T07:05:16.670Z,96697.53
2022-12-11T07:09:18.073Z,96692.22
2022-12-11T07:13:19.463Z,96697.84
2022-12-11T07:17:20.792Z,96699.53
2022-12-11T07:21:23.521Z,96705.50
2022-12-11T07:25:24.916Z,96709.38
2022-12-11T07:29:26.321Z,96708.28
2022-12-11T07:33:27.649Z,96711.63
2022-12-11T07:37:30.425Z,96704.47
2022-12-11T07:41:31.808Z,96693.69
2022-12-11T07:45:33.229Z,96696.56
2022-12-11T07:49:34.629Z,96694.94
2022-12-11T07:53:37.439Z,96688.78
2022-12-11T07:57:38.878Z,96681.91
2022-12-11T08:01:40.755Z,96701.28
2022-12-11T08:05:46.553Z,96706.75
2022-12-11T08:09:49.284Z,96703.66
2022-12-11T08:13:50.650Z,96705.28
2022-12-11T08:17:52.023Z,96706.88
2022-12-11T08:21:53.420Z,96713.28
2022-12-11T08:25:56.131Z,96711.69
2022-12-11T08:29:57.533Z,96708.59
2022-12-11T08:33:58.958Z,96710.66
2022-12-11T08:38:00.301Z,96724.06
2022-12-11T08:42:03.019Z,96715.06
2022-12-11T08:46:04.652Z,96715.28
2022-12-11T08:50:06.432Z,96711.91
2022-12-11T08:54:09.361Z,96719.97
2022-12-11T08:58:12.199Z,96717.81
2022-12-11T09:02:13.633Z,96722.09
2022-12-11T09:06:16.176Z,96728.56
2022-12-11T09:10:17.619Z,96728.09
2022-12-11T09:14:20.342Z,96730.66
2022-12-11T09:18:21.711Z,96733.47
2022-12-11T09:22:23.106Z,96726.97
2022-12-11T09:26:25.017Z,96720.59
2022-12-11T09:30:27.738Z,96711.66
2022-12-11T09:34:29.730Z,96721.34
2022-12-11T09:38:31.584Z,96716.56
2022-12-11T09:42:42.216Z,96716.91
2022-12-11T09:46:45.516Z,96712.25
2022-12-11T09:50:47.913Z,96712.16
2022-12-11T09:54:50.511Z,96710.34
2022-12-11T09:58:58.062Z,96702.19
2022-12-11T10:03:09.640Z,96701.53
2022-12-11T10:07:12.292Z,96689.56
2022-12-11T10:11:22.769Z,96684.88
2022-12-11T10:15:30.793Z,96692.53
2022-12-11T10:19:34.329Z,96670.69
2022-12-11T10:23:38.370Z,96672.13
2022-12-11T10:27:40.384Z,96667.00
2022-12-11T10:31:46.598Z,96669.25
2022-12-11T10:35:50.503Z,96659.22
2022-12-11T10:39:54.037Z,96668.91
2022-12-11T10:43:55.455Z,96662.56
2022-12-11T10:48:04.178Z,96666.63
2022-12-11T10:52:11.585Z,96661.63
2022-12-11T10:56:13.400Z,96660.22
2022-12-11T11:00:28.679Z,96649.97
2022-12-11T11:04:31.406Z,96643.66
2022-12-11T11:08:41.350Z,96639.34
2022-12-11T11:12:43.930Z,96631.31
2022-12-11T11:16:46.609Z,96631.00
2022-12-11T11:20:48.409Z,96609.00
2022-12-11T11:24:55.579Z,96618.22
2022-12-11T11:28:57.140Z,96606.91
2022-12-11T11:32:59.720Z,96601.88
2022-12-11T11:37:01.120Z,96597.34
2022-12-11T11:41:15.049Z,96582.91
2022-12-11T11:45:20.487Z,96578.47
2022-12-11T11:49:25.643Z,96567.94
2022-12-11T11:53:30.325Z,96571.19
2022-12-11T11:57:35.488Z,96570.84
2022-12-11T12:01:37.122Z,96570.66
2022-12-11T12:05:43.253Z,96582.09
2022-12-11T12:09:49.327Z,96578.59
2022-12-11T12:13:57.307Z,96566.13
2022-12-11T12:18:03.895Z,96571.44
2022-12-11T12:22:11.954Z,96557.81
2022-12-11T12:26:17.048Z,96554.53
2022-12-11T12:30:22.871Z,96546.38
2022-12-11T12:34:33.948Z,96549.19
2022-12-11T12:38:38.408Z,96557.16
2022-12-11T12:42:45.699Z,96554.97
2022-12-11T12:46:54.772Z,96556.94
2022-12-11T12:50:56.759Z,96558.44
2022-12-11T12:54:59.976Z,96556.75
2022-12-11T12:59:01.392Z,96554.00
2022-12-11T13:03:12.979Z,96552.16
2022-12-11T13:07:17.851Z,96552.06
2022-12-11T13:11:20.601Z,96539.44
2022-12-11T13:15:36.839Z,96542.44
2022-12-11T13:19:42.801Z,96539.38
2022-12-11T13:23:44.393Z,96546.69
2022-12-11T13:27:45.808Z,96546.72
2022-12-11T13:31:56.302Z,96546.34
2022-12-11T13:36:24.745Z,96556.41
2022-12-11T13:40:28.608Z,96554.22
2022-12-11T13:44:32.197Z,96558.56
2022-12-11T13:48:34.960Z,96562.81
2022-12-11T13:52:37.723Z,96573.34
2022-12-11T13:56:39.110Z,96566.47
2022-12-11T14:00:40.576Z,96571.00
2022-12-11T14:04:42.154Z,96571.59
2022-12-11T14:08:45.085Z,96572.13
2022-12-11T14:12:51.474Z,96573.34
2022-12-11T14:16:53.067Z,96565.13
2022-12-11T14:20:55.153Z,96573.00
2022-12-11T14:24:58.775Z,96574.59
2022-12-11T14:29:00.578Z,96577.78
2022-12-11T14:33:04.498Z,96577.44
2022-12-11T14:37:06.978Z,96572.47
2022-12-11T14:41:12.735Z,96581.06
2022-12-11T14:45:19.083Z,96574.81
2022-12-11T14:49:22.658Z,96584.47
2022-12-11T14:53:26.322Z,96581.47
2022-12-11T14:57:30.796Z,96589.78
2022-12-11T15:01:32.971Z,96578.19
2022-12-11T15:05:40.509Z,96584.69
2022-12-11T15:09:46.532Z,96577.06
2022-12-11T15:13:51.941Z,96587.41
2022-12-11T15:17:53.399Z,96588.34
2022-12-11T15:21:55.291Z,96577.00
2022-12-11T15:25:57.693Z,96575.03
2022-12-11T15:30:00.415Z,96575.84
2022-12-11T15:34:02.123Z,96574.88
2022-12-11T15:38:03.889Z,96577.25
2022-12-11T15:42:05.637Z,96585.72
2022-12-11T15:46:08.456Z,96585.94
2022-12-11T15:50:15.037Z,96587.06
2022-12-11T15:54:16.422Z,96585.50
2022-12-11T15:58:19.082Z,96578.00
2022-12-11T16:02:22.175Z,96585.31
2022-12-11T16:06:23.621Z,96587.84
2022-12-11T16:10:25.250Z,96589.28
2022-12-11T16:14:26.614Z,96591.47
2022-12-11T16:18:29.405Z,96594.38
2022-12-11T16:22:30.780Z,96595.78
2022-12-11T16:26:32.205Z,96601.06
2022-12-11T16:30:34.655Z,96599.88
2022-12-11T16:34:37.435Z,96590.41
2022-12-11T16:38:38.819Z,96594.19
2022-12-11T16:42:40.218Z,96597.63
2022-12-11T16:46:41.608Z,96601.78
2022-12-11T16:50:44.359Z,96597.09
2022-12-11T16:54:45.751Z,96593.69
2022-12-11T16:58:47.591Z,96597.97
2022-12-11T17:02:49.059Z,96601.56
2022-12-11T17:06:51.854Z,96594.91
2022-12-11T17:10:53.201Z,96601.94
2022-12-11T17:14:54.691Z,96607.00
2022-12-11T17:18:56.534Z,96607.50
2022-12-11T17:22:59.277Z,96600.56
2022-12-11T17:27:00.954Z,96601.41
2022-12-11T17:31:03.615Z,96605.81
2022-12-11T17:35:05.523Z,96610.41
2022-12-11T17:39:08.276Z,96609.91
2022-12-11T17:43:10.391Z,96610.84
2022-12-11T17:47:11.729Z,96614.94
2022-12-11T17:51:13.737Z,96612.38
2022-12-11T17:55:16.911Z,96621.16
2022-12-11T17:59:18.435Z,96616.50
2022-12-11T18:03:19.990Z,96618.34
2022-12-11T18:07:21.395Z,96630.06
2022-12-11T18:11:24.270Z,96631.88
2022-12-11T18:15:25.659Z,96631.38
2022-12-11T18:19:27.106Z,96630.06
2022-12-11T18:23:28.521Z,96637.06
2022-12-11T18:27:31.254Z,96638.19
2022-12-11T18:31:34.483Z,96634.72
2022-12-11T18:35:39.253Z,96634.09
2022-12-11T18:39:40.633Z,96636.00
2022-12-11T18:43:43.422Z,96638.31
2022-12-11T18:47:44.935Z,96647.84
2022-12-11T18:51:46.295Z,96639.63
2022-12-11T18:55:48.496Z,96641.91
2022-12-11T18:59:51.806Z,96640.03
2022-12-11T19:03:55.367Z,96647.78
2022-12-11T19:08:00.427Z,96650.34
2022-12-11T19:12:01.933Z,96650.84
2022-12-11T19:16:04.920Z,96653.25
2022-12-11T19:20:39.849Z,96649.91
2022-12-11T19:24:28.337Z,96657.56
2022-12-11T19:28:29.699Z,96660.81
2022-12-11T19:32:36.275Z,96652.03
2022-12-11T19:36:37.933Z,96653.19
2022-12-11T19:40:40.436Z,96653.75
2022-12-11T19:44:41.831Z,96655.25
2022-12-11T19:48:44.907Z,96656.50
2022-12-11T19:52:46.717Z,96651.88
2022-12-11T19:56:48.146Z,96661.44
2022-12-11T20:00:49.595Z,96659.63
2022-12-11T20:04:52.413Z,96652.50
2022-12-11T20:08:53.854Z,96661.78
2022-12-11T20:12:55.252Z,96668.09
2022-12-11T20:17:13.819Z,96669.41
2022-12-11T20:21:18.031Z,96672.44
2022-12-11T20:25:19.515Z,96668.09
2022-12-11T20:29:21.054Z,96669.50
2022-12-11T20:33:22.528Z,96657.91
2022-12-11T20:37:25.337Z,96657.91
2022-12-11T20:41:27.282Z,96660.69
2022-12-11T20:45:28.752Z,96659.53
2022-12-11T20:49:30.141Z,96657.13
2022-12-11T20:53:33.697Z,96657.50
2022-12-11T20:57:35.116Z,96654.81
2022-12-11T21:01:36.499Z,96646.63
2022-12-11T21:05:39.978Z,96649.06
2022-12-11T21:09:42.706Z,96640.94
2022-12-11T21:13:44.141Z,96644.75
2022-12-11T21:17:45.494Z,96644.75
2022-12-11T21:21:46.989Z,96639.31
2022-12-11T21:25:50.553Z,96638.16
2022-12-11T21:29:51.915Z,96642.25
2022-12-11T21:33:53.353Z,96636.03
2022-12-11T21:37:54.746Z,96634.03
2022-12-11T21:41:57.493Z,96637.56
2022-12-11T21:46:01.752Z,96646.66
2022-12-11T21:50:04.476Z,96642.97
2022-12-11T21:54:06.686Z,96637.28
2022-12-11T21:58:09.481Z,96639.31
2022-12-11T22:02:10.971Z,96641.44
2022-12-11T22:06:12.400Z,96642.41
2022-12-11T22:10:13.788Z,96631.44
2022-12-11T22:14:17.538Z,96630.28
2022-12-11T22:18:18.912Z,96637.66
2022-12-11T22:22:20.364Z,96644.38
2022-12-11T22:26:22.594Z,96646.19
2022-12-11T22:30:25.339Z,96637.28
2022-12-11T22:34:26.725Z,96641.13
2022-12-11T22:38:28.091Z,96638.78
2022-12-11T22:42:29.450Z,96640.56
2022-12-11T22:46:32.199Z,96639.00
2022-12-11T22:50:33.802Z,96638.66
2022-12-11T22:54:37.511Z,96642.19
2022-12-11T22:58:39.277Z,96646.41
2022-12-11T23:02:42.068Z,96643.44
2022-12-11T23:06:43.516Z,96644.13
2022-12-11T23:10:45.266Z,96634.19
2022-12-11T23:14:46.653Z,96633.19
2022-12-11T23:18:49.424Z,96638.63
2022-12-11T23:22:50.809Z,96640.84
2022-12-11T23:26:52.206Z,96646.16
2022-12-11T23:30:53.651Z,96640.31
2022-12-11T23:34:56.436Z,96649.38
2022-12-11T23:38:57.918Z,96647.13
2022-12-11T23:42:59.266Z,96650.84
2022-12-11T23:47:00.650Z,96653.47
2022-12-11T23:51:04.254Z,96649.19
2022-12-11T23:55:06.249Z,96652.16
2022-12-11T23:59:07.609Z,96650.69
